createdAt,value
2022-07-28T00:01:34.835Z,101231.97
2022-07-28T00:04:01.594Z,101223.19
2022-07-28T00:06:31.073Z,101223.19
2022-07-28T00:08:57.707Z,101235.50
2022-07-28T00:11:24.447Z,101230.25
2022-07-28T00:13:51.367Z,101227.59
2022-07-28T00:16:18.399Z,101237.28
2022-07-28T00:18:45.375Z,101235.50
2022-07-28T00:21:12.947Z,101239.91
2022-07-28T00:23:39.941Z,101239.94
2022-07-28T00:26:08.550Z,101230.28
2022-07-28T00:28:35.849Z,101235.53
2022-07-28T00:31:05.782Z,101228.50
2022-07-28T00:33:36.950Z,101225.88
2022-07-28T00:36:03.937Z,101231.16
2022-07-28T00:38:30.564Z,101228.53
2022-07-28T00:41:12.479Z,101233.78
2022-07-28T00:43:46.399Z,101237.28
2022-07-28T00:46:13.682Z,101235.53
2022-07-28T00:48:46.431Z,101234.63
2022-07-28T00:51:14.601Z,101228.50
2022-07-28T00:53:41.300Z,101228.53
2022-07-28T00:56:08.266Z,101230.25
2022-07-28T00:58:36.406Z,101232.91
2022-07-28T01:01:07.782Z,101228.50
2022-07-28T01:03:36.828Z,101238.13
2022-07-28T01:06:32.045Z,101238.13
2022-07-28T01:09:15.846Z,101234.63
2022-07-28T01:11:59.378Z,101233.72
2022-07-28T01:14:38.992Z,101244.25
2022-07-28T01:17:20.514Z,101240.72
2022-07-28T01:20:15.877Z,101238.97
2022-07-28T01:22:52.366Z,101241.59
2022-07-28T01:25:31.480Z,101236.34
2022-07-28T01:28:22.041Z,101237.19
2022-07-28T01:30:54.169Z,101238.03
2022-07-28T01:33:32.266Z,101236.28
2022-07-28T01:36:03.039Z,101238.88
2022-07-28T01:38:32.579Z,101240.63
2022-07-28T01:41:01.239Z,101239.75
2022-07-28T01:43:29.388Z,101244.97
2022-07-28T01:45:57.020Z,101242.34
2022-07-28T01:48:25.221Z,101237.97
2022-07-28T01:50:54.716Z,101235.34
2022-07-28T01:53:24.152Z,101242.31
2022-07-28T01:55:51.235Z,101243.19
2022-07-28T01:58:21.417Z,101235.31
2022-07-28T02:00:49.713Z,101238.78
2022-07-28T02:03:18.377Z,101239.66
2022-07-28T02:05:46.161Z,101238.78
2022-07-28T02:08:14.130Z,101250.09
2022-07-28T02:10:42.324Z,101248.34
2022-07-28T02:13:10.741Z,101244.84
2022-07-28T02:15:37.986Z,101243.09
2022-07-28T02:18:05.696Z,101250.97
2022-07-28T02:20:32.612Z,101251.84
2022-07-28T02:22:59.252Z,101253.56
2022-07-28T02:25:26.035Z,101248.31
2022-07-28T02:27:59.373Z,101244.78
2022-07-28T02:30:41.947Z,101243.03
2022-07-28T02:33:13.724Z,101243.94
2022-07-28T02:35:48.775Z,101245.63
2022-07-28T02:38:30.685Z,101239.47
2022-07-28T02:41:01.764Z,101242.97
2022-07-28T02:43:50.184Z,101244.72
2022-07-28T02:46:22.308Z,101249.03
2022-07-28T02:48:51.296Z,101254.22
2022-07-28T02:51:19.339Z,101256.81
2022-07-28T02:53:46.283Z,101255.91
2022-07-28T02:56:13.137Z,101262.84
2022-07-28T02:58:40.718Z,101263.72
2022-07-28T03:01:07.637Z,101265.47
2022-07-28T03:03:34.811Z,101269.84
2022-07-28T03:06:01.766Z,101265.47
2022-07-28T03:08:28.480Z,101270.66
2022-07-28T03:11:12.657Z,101267.94
2022-07-28T03:13:40.182Z,101261.81
2022-07-28T03:16:07.722Z,101267.03
2022-07-28T03:18:34.672Z,101277.53
2022-07-28T03:21:01.462Z,101270.50
2022-07-28T03:23:40.347Z,101270.53
2022-07-28T03:26:12.370Z,101270.50
2022-07-28T03:28:39.409Z,101283.59
2022-07-28T03:31:08.618Z,101279.22
2022-07-28T03:33:35.437Z,101282.72
2022-07-28T03:36:05.942Z,101280.97
2022-07-28T03:38:44.573Z,101287.97
2022-07-28T03:41:11.715Z,101293.19
2022-07-28T03:43:39.460Z,101289.69
2022-07-28T03:46:12.793Z,101296.69
2022-07-28T03:48:40.231Z,101300.19
2022-07-28T03:51:06.892Z,101303.66
2022-07-28T03:53:33.569Z,101297.56
2022-07-28T03:56:00.160Z,101299.34
2022-07-28T03:58:28.988Z,101297.63
2022-07-28T04:00:56.786Z,101302.81
2022-07-28T04:03:42.785Z,101300.19
2022-07-28T04:06:13.273Z,101311.59
2022-07-28T04:08:42.161Z,101309.88
2022-07-28T04:11:08.906Z,101309.00
2022-07-28T06:17:15.043Z,101332.94
2022-07-28T06:19:44.735Z,101337.63
2022-07-28T06:22:11.471Z,101334.88
2022-07-28T06:24:38.483Z,101338.19
2022-07-28T06:27:05.082Z,101332.66
2022-07-28T06:29:31.744Z,101332.16
2022-07-28T06:31:58.587Z,101331.03
2022-07-28T06:34:26.411Z,101337.59
2022-07-28T06:36:53.047Z,101333.69
2022-07-28T06:39:19.652Z,101337.63
2022-07-28T06:41:47.517Z,101330.78
2022-07-28T06:44:14.372Z,101334.53
2022-07-28T06:46:41.212Z,101335.53
2022-07-28T06:49:08.423Z,101332.94
2022-07-28T06:51:38.490Z,101334.50
2022-07-28T06:54:11.110Z,101338.78
2022-07-28T06:56:38.108Z,101342.84
2022-07-28T06:59:04.739Z,101349.41
2022-07-28T07:01:31.450Z,101334.41
2022-07-28T07:03:58.169Z,101342.22
2022-07-28T07:06:24.829Z,101338.69
2022-07-28T07:08:51.754Z,101337.84
2022-07-28T07:11:18.566Z,101335.47
2022-07-28T07:13:45.242Z,101336.47
2022-07-28T07:16:11.935Z,101340.53
2022-07-28T07:18:38.599Z,101338.66
2022-07-28T07:21:05.216Z,101340.06
2022-07-28T07:23:31.817Z,101338.91
2022-07-28T07:25:58.809Z,101343.78
2022-07-28T07:28:25.462Z,101337.00
2022-07-28T07:30:52.253Z,101338.84
2022-07-28T07:33:18.922Z,101345.22
2022-07-28T07:35:45.917Z,101343.94
2022-07-28T07:38:12.677Z,101339.28
2022-07-28T07:40:39.429Z,101345.63
2022-07-28T07:43:06.161Z,101343.31
2022-07-28T07:45:34.386Z,101345.84
2022-07-28T07:48:02.338Z,101345.34
2022-07-28T07:50:29.590Z,101336.00
2022-07-28T07:52:56.412Z,101339.47
2022-07-28T07:55:23.144Z,101351.16
2022-07-28T07:57:49.846Z,101350.44
2022-07-28T08:00:28.856Z,101350.09
2022-07-28T08:02:57.502Z,101349.38
2022-07-28T08:05:34.582Z,101350.41
2022-07-28T08:08:01.994Z,101340.88
2022-07-28T08:10:28.791Z,101342.88
2022-07-28T08:12:55.481Z,101339.66
2022-07-28T08:15:22.492Z,101346.22
2022-07-28T08:17:49.253Z,101347.56
2022-07-28T08:20:16.013Z,101347.69
2022-07-28T08:22:51.048Z,101344.22
2022-07-28T08:25:17.885Z,101337.88
2022-07-28T08:27:44.653Z,101347.56
2022-07-28T08:30:12.570Z,101343.31
2022-07-28T08:32:39.339Z,101344.63
2022-07-28T08:35:31.699Z,101342.97
2022-07-28T08:37:53.330Z,101342.97
2022-07-28T08:40:22.476Z,101343.88
2022-07-28T08:43:03.932Z,101341.59
2022-07-28T08:45:32.539Z,101345.22
2022-07-28T08:48:09.413Z,101344.06
2022-07-28T08:50:38.451Z,101340.81
2022-07-28T08:53:06.959Z,101346.44
2022-07-28T08:55:36.061Z,101340.72
2022-07-28T08:58:03.649Z,101338.34
2022-07-28T09:00:30.592Z,101340.66
2022-07-28T09:02:57.936Z,101338.13
2022-07-28T09:05:25.558Z,101337.97
2022-07-28T09:07:55.464Z,101338.78
2022-07-28T09:10:23.258Z,101336.00
2022-07-28T09:12:50.022Z,101336.84
2022-07-28T09:15:16.697Z,101337.34
2022-07-28T09:17:43.417Z,101335.50
2022-07-28T09:20:11.596Z,101337.69
2022-07-28T09:22:55.266Z,101346.06
2022-07-28T09:25:22.468Z,101341.22
2022-07-28T09:27:49.377Z,101338.88
2022-07-28T09:30:16.099Z,101338.88
2022-07-28T09:32:42.804Z,101329.84
2022-07-28T09:35:19.894Z,101341.16
2022-07-28T09:37:46.664Z,101331.94
2022-07-28T09:40:13.941Z,101331.72
2022-07-28T09:42:50.082Z,101333.28
2022-07-28T09:45:24.756Z,101326.16
2022-07-28T09:48:13.070Z,101330.16
2022-07-28T09:50:43.312Z,101331.41
2022-07-28T09:53:24.091Z,101329.53
2022-07-28T09:55:56.330Z,101328.41
2022-07-28T09:58:23.285Z,101332.31
2022-07-28T10:01:12.252Z,101336.22
2022-07-28T10:03:41.177Z,101334.72
2022-07-28T10:06:08.563Z,101325.38
2022-07-28T10:08:42.396Z,101326.44
2022-07-28T10:11:09.679Z,101326.22
2022-07-28T10:13:37.269Z,101324.59
2022-07-28T10:16:12.928Z,101320.81
2022-07-28T10:18:40.405Z,101326.16
2022-07-28T10:21:13.482Z,101313.00
2022-07-28T10:23:41.585Z,101319.00
2022-07-28T10:26:13.180Z,101318.50
2022-07-28T10:28:49.741Z,101323.50
2022-07-28T10:31:34.320Z,101315.31
2022-07-28T10:34:03.064Z,101317.19
2022-07-28T10:36:31.609Z,101313.88
2022-07-28T10:39:14.378Z,101315.44
2022-07-28T10:41:42.728Z,101310.75
2022-07-28T10:44:14.638Z,101308.84
2022-07-28T10:46:44.329Z,101308.16
2022-07-28T10:49:14.964Z,101310.19
2022-07-28T10:52:06.534Z,101309.28
2022-07-28T10:54:55.457Z,101301.31
2022-07-28T10:57:24.201Z,101297.41
2022-07-28T11:00:17.600Z,101308.31
2022-07-28T11:02:57.917Z,101302.13
2022-07-28T11:05:38.012Z,101298.25
2022-07-28T11:08:17.324Z,101306.19
2022-07-28T11:10:51.357Z,101304.22
2022-07-28T11:13:33.384Z,101303.03
2022-07-28T11:19:36.826Z,101293.56
2022-07-28T11:22:33.119Z,101302.88
2022-07-28T11:25:18.684Z,101307.44
2022-07-28T11:28:18.201Z,101296.66
2022-07-28T11:30:48.665Z,101303.50
2022-07-28T11:33:17.290Z,101287.78
2022-07-28T11:35:48.743Z,101292.91
2022-07-28T11:38:17.897Z,101290.28
2022-07-28T11:40:48.528Z,101276.56
2022-07-28T11:43:22.046Z,101284.91
2022-07-28T11:46:02.370Z,101290.81
2022-07-28T11:48:33.339Z,101288.22
2022-07-28T11:51:04.228Z,101284.03
2022-07-28T11:53:41.528Z,101276.28
2022-07-28T11:56:15.609Z,101280.16
2022-07-28T11:58:43.677Z,101274.44
2022-07-28T12:01:13.525Z,101276.09
2022-07-28T12:03:59.104Z,101272.22
2022-07-28T12:06:37.009Z,101269.56
2022-07-28T12:09:06.669Z,101270.44
2022-07-28T12:11:38.717Z,101268.91
2022-07-28T12:14:13.395Z,101272.47
2022-07-28T12:16:47.001Z,101256.00
2022-07-28T12:19:21.058Z,101260.13
2022-07-28T12:21:53.065Z,101257.16
2022-07-28T12:24:44.629Z,101259.75
2022-07-28T12:27:15.298Z,101250.81
2022-07-28T12:29:47.984Z,101248.19
2022-07-28T12:32:21.805Z,101253.19
2022-07-28T12:39:22.426Z,101258.69
2022-07-28T12:52:09.872Z,101241.06
2022-07-28T12:54:37.275Z,101237.44
2022-07-28T12:57:04.452Z,101245.63
2022-07-28T12:59:36.226Z,101237.50
2022-07-28T13:02:03.176Z,101247.59
2022-07-28T13:04:45.196Z,101239.53
2022-07-28T13:07:15.376Z,101230.88
2022-07-28T13:09:49.034Z,101235.03
2022-07-28T13:12:24.452Z,101237.06
2022-07-28T13:14:53.636Z,101228.09
2022-07-28T13:17:23.046Z,101226.97
2022-07-28T13:19:50.268Z,101226.75
2022-07-28T13:22:27.714Z,101223.38
2022-07-28T13:24:57.077Z,101229.88
2022-07-28T13:27:24.244Z,101219.06
2022-07-28T13:29:50.895Z,101228.91
2022-07-28T13:32:17.564Z,101216.97
2022-07-28T13:34:44.881Z,101214.28
2022-07-28T13:37:12.192Z,101222.50
2022-07-28T13:39:39.381Z,101226.06
2022-07-28T13:42:06.179Z,101225.22
2022-07-28T13:44:34.254Z,101220.97
2022-07-28T13:47:01.620Z,101217.03
2022-07-28T13:49:29.365Z,101217.22
2022-07-28T13:51:56.123Z,101209.78
2022-07-28T13:54:24.025Z,101205.00
2022-07-28T13:56:50.685Z,101205.16
2022-07-28T13:59:17.460Z,101203.31
2022-07-28T14:01:44.256Z,101210.50
2022-07-28T14:04:17.795Z,101208.47
2022-07-28T14:06:45.667Z,101204.38
2022-07-28T14:09:13.000Z,101194.81
2022-07-28T14:11:49.610Z,101206.34
2022-07-28T14:14:25.090Z,101206.03
2022-07-28T14:16:54.347Z,101207.88
2022-07-28T14:19:23.435Z,101198.41
2022-07-28T14:21:59.019Z,101204.66
2022-07-28T14:24:27.849Z,101198.66
2022-07-28T14:26:54.478Z,101199.88
2022-07-28T14:29:21.130Z,101200.09
2022-07-28T14:31:48.045Z,101192.91
2022-07-28T14:34:15.100Z,101185.94
2022-07-28T14:36:42.116Z,101181.59
2022-07-28T14:39:12.467Z,101184.50
2022-07-28T14:41:39.372Z,101183.03
2022-07-28T14:44:06.003Z,101179.13
2022-07-28T14:46:32.641Z,101174.06
2022-07-28T14:48:59.422Z,101173.16
2022-07-28T14:51:26.081Z,101175.22
2022-07-28T14:53:52.826Z,101168.19
2022-07-28T14:56:19.436Z,101165.00
2022-07-28T14:58:46.078Z,101165.63
2022-07-28T15:01:12.852Z,101166.34
2022-07-28T15:03:43.358Z,101165.78
2022-07-28T15:06:10.620Z,101168.78
2022-07-28T15:08:37.377Z,101167.06
2022-07-28T15:11:04.012Z,101175.31
2022-07-28T15:13:30.665Z,101168.69
2022-07-28T15:15:59.859Z,101166.22
2022-07-28T15:18:26.726Z,101160.81
2022-07-28T15:20:56.045Z,101168.06
2022-07-28T15:23:23.040Z,101157.22
2022-07-28T15:25:50.144Z,101165.03
2022-07-28T15:28:19.163Z,101162.06
2022-07-28T15:30:51.694Z,101162.00
2022-07-28T15:33:20.465Z,101161.56
2022-07-28T15:35:58.190Z,101153.97
2022-07-28T15:38:27.732Z,101155.56
2022-07-28T15:40:55.127Z,101158.59
2022-07-28T15:43:23.767Z,101148.63
2022-07-28T15:45:51.099Z,101147.53
2022-07-28T15:48:17.741Z,101140.75
2022-07-28T15:50:48.411Z,101150.16
2022-07-28T15:53:18.510Z,101145.28
2022-07-28T15:55:50.510Z,101143.97
2022-07-28T15:58:18.019Z,101138.03
2022-07-28T16:00:45.936Z,101139.72
2022-07-28T16:03:13.437Z,101134.75
2022-07-28T16:05:40.703Z,101141.25
2022-07-28T16:08:07.530Z,101144.00
2022-07-28T16:10:34.159Z,101136.81
2022-07-28T16:13:01.663Z,101139.81
2022-07-28T16:15:28.299Z,101135.81
2022-07-28T16:17:55.044Z,101145.66
2022-07-28T16:20:22.170Z,101146.13
2022-07-28T16:22:48.835Z,101142.66
2022-07-28T16:25:20.387Z,101136.28
2022-07-28T16:27:48.176Z,101128.28
2022-07-28T16:30:15.739Z,101142.56
2022-07-28T16:32:42.601Z,101139.97
2022-07-28T16:35:09.816Z,101138.63
2022-07-28T16:37:36.471Z,101142.41
2022-07-28T16:40:04.143Z,101144.69
2022-07-28T16:42:30.762Z,101143.41
2022-07-28T16:44:57.401Z,101149.53
2022-07-28T16:47:24.038Z,101147.28
2022-07-28T16:49:50.768Z,101144.44
2022-07-28T16:52:17.395Z,101146.38
2022-07-28T16:54:44.108Z,101146.63
2022-07-28T16:57:12.470Z,101147.44
2022-07-28T16:59:48.491Z,101150.56
2022-07-28T17:02:16.277Z,101151.94
2022-07-28T17:04:43.119Z,101156.84
2022-07-28T17:07:09.829Z,101161.66
2022-07-28T17:09:36.977Z,101147.22
2022-07-28T17:12:04.876Z,101159.72
2022-07-28T17:14:34.051Z,101158.28
2022-07-28T17:17:00.851Z,101164.75
2022-07-28T17:19:27.699Z,101160.09
2022-07-28T17:22:01.152Z,101160.56
2022-07-28T17:24:28.236Z,101160.22
2022-07-28T17:29:42.638Z,101155.53
2022-07-28T17:32:10.190Z,101158.72
2022-07-28T17:34:37.511Z,101160.97
2022-07-28T17:37:05.219Z,101167.91
2022-07-28T17:39:32.045Z,101162.13
2022-07-28T17:41:58.770Z,101165.75
2022-07-28T17:44:25.420Z,101161.75
2022-07-28T17:46:52.146Z,101162.44
2022-07-28T17:49:20.038Z,101171.63
2022-07-28T17:51:48.371Z,101168.56
2022-07-28T17:54:16.932Z,101170.91
2022-07-28T17:56:44.002Z,101170.44
2022-07-28T17:59:13.159Z,101173.38
2022-07-28T18:01:45.235Z,101169.81
2022-07-28T18:04:13.011Z,101165.16
2022-07-28T18:06:40.342Z,101174.09
2022-07-28T18:09:09.947Z,101171.91
2022-07-28T18:11:57.192Z,101180.19
2022-07-28T18:14:31.210Z,101177.50
2022-07-28T18:16:59.683Z,101173.47
2022-07-28T18:19:27.006Z,101167.19
2022-07-28T18:21:54.836Z,101172.84
2022-07-28T18:24:22.691Z,101173.38
2022-07-28T18:26:53.095Z,101180.75
2022-07-28T18:29:21.466Z,101173.16
2022-07-28T18:31:50.445Z,101177.31
2022-07-28T18:34:17.585Z,101170.94
2022-07-28T18:36:44.844Z,101182.28
2022-07-28T18:39:12.413Z,101180.19
2022-07-28T18:41:47.098Z,101178.97
2022-07-28T18:44:18.841Z,101179.50
2022-07-28T18:46:46.450Z,101189.03
2022-07-28T18:49:13.657Z,101189.50
2022-07-28T18:51:45.112Z,101195.28
2022-07-28T18:54:21.520Z,101193.28
2022-07-28T18:56:54.299Z,101193.88
2022-07-28T18:59:21.700Z,101197.00
2022-07-28T19:01:48.761Z,101199.44
2022-07-28T19:04:19.030Z,101195.59
2022-07-28T19:06:45.964Z,101188.03
2022-07-28T19:09:12.601Z,101197.84
2022-07-28T19:11:45.277Z,101194.91
2022-07-28T19:14:12.763Z,101200.69
2022-07-28T19:16:39.650Z,101203.88
2022-07-28T19:19:06.337Z,101198.94
2022-07-28T19:21:34.416Z,101210.09
2022-07-28T19:24:01.078Z,101212.19
2022-07-28T19:26:28.055Z,101212.50
2022-07-28T19:28:55.030Z,101212.00
2022-07-28T19:31:41.360Z,101212.38
2022-07-28T19:34:11.196Z,101214.13
2022-07-28T19:36:38.685Z,101222.56
2022-07-28T19:39:05.590Z,101221.88
2022-07-28T19:41:32.273Z,101221.81
2022-07-28T19:43:58.996Z,101225.53
2022-07-28T19:46:26.232Z,101219.47
2022-07-28T19:48:54.255Z,101222.34
2022-07-28T19:51:21.084Z,101229.31
2022-07-28T19:53:48.481Z,101227.06
2022-07-28T19:56:15.187Z,101229.94
2022-07-28T19:58:41.781Z,101226.44
2022-07-28T20:01:08.633Z,101231.13
2022-07-28T20:04:00.612Z,101238.28
2022-07-28T20:06:24.924Z,101240.19
2022-07-28T20:08:52.625Z,101246.63
2022-07-28T20:11:19.275Z,101240.72
2022-07-28T20:13:45.861Z,101240.13
2022-07-28T20:16:12.552Z,101250.13
2022-07-28T20:18:39.682Z,101249.38
2022-07-28T20:21:06.588Z,101251.13
2022-07-28T20:23:33.438Z,101246.94
2022-07-28T20:26:00.224Z,101255.84
2022-07-28T20:28:26.888Z,101252.53
2022-07-28T20:30:53.580Z,101254.44
2022-07-28T20:33:20.386Z,101255.53
2022-07-28T20:35:47.009Z,101253.03
2022-07-28T20:38:13.618Z,101261.28
2022-07-28T20:40:40.322Z,101255.22
2022-07-28T20:43:06.977Z,101259.81
2022-07-28T20:45:34.511Z,101258.94
2022-07-28T20:48:01.285Z,101260.00
2022-07-28T20:50:29.297Z,101257.50
2022-07-28T20:52:56.096Z,101258.59
2022-07-28T20:55:22.899Z,101261.34
2022-07-28T20:57:53.383Z,101262.28
2022-07-28T21:00:20.689Z,101272.09
2022-07-28T21:02:47.388Z,101269.56
2022-07-28T21:05:22.140Z,101273.97
2022-07-28T21:08:04.815Z,101266.97
2022-07-28T21:10:33.804Z,101270.63
2022-07-28T21:13:00.417Z,101274.44
2022-07-28T21:15:27.083Z,101275.59
2022-07-28T21:17:57.701Z,101281.69
2022-07-28T21:20:25.469Z,101279.94
2022-07-28T21:22:52.434Z,101288.28
2022-07-28T21:25:19.461Z,101283.88
2022-07-28T21:28:04.823Z,101281.44
2022-07-28T21:30:31.534Z,101298.34
2022-07-28T21:32:58.240Z,101294.91
2022-07-28T21:35:25.146Z,101294.16
2022-07-28T21:37:51.972Z,101298.69
2022-07-28T21:40:18.958Z,101303.09
2022-07-28T21:42:47.138Z,101307.69
2022-07-28T21:45:13.822Z,101305.06
2022-07-28T21:47:41.221Z,101300.63
2022-07-28T21:50:08.339Z,101303.34
2022-07-28T21:52:36.534Z,101302.63
2022-07-28T21:55:04.889Z,101302.88
2022-07-28T21:57:31.584Z,101303.00
2022-07-28T21:59:58.686Z,101304.88
2022-07-28T22:02:25.438Z,101298.72
2022-07-28T22:04:52.747Z,101305.81
2022-07-28T22:07:19.580Z,101304.19
2022-07-28T22:09:46.254Z,101313.78
2022-07-28T22:12:12.886Z,101312.94
2022-07-28T22:14:39.662Z,101309.66
2022-07-28T22:17:06.306Z,101310.59
2022-07-28T22:19:32.997Z,101306.34
2022-07-28T22:21:59.738Z,101319.69
2022-07-28T22:24:26.485Z,101322.47
2022-07-28T22:26:53.633Z,101324.31
2022-07-28T22:29:20.577Z,101320.06
2022-07-28T22:31:47.308Z,101323.66
2022-07-28T22:34:14.442Z,101325.41
2022-07-28T22:36:41.359Z,101326.38
2022-07-28T22:39:07.990Z,101334.38
2022-07-28T22:41:34.644Z,101329.13
2022-07-28T22:44:01.356Z,101333.59
2022-07-28T22:46:28.245Z,101331.03
2022-07-28T22:48:55.033Z,101332.06
2022-07-28T22:51:21.763Z,101325.06
2022-07-28T22:53:48.463Z,101336.66
2022-07-28T22:56:15.619Z,101343.84
2022-07-28T22:58:42.288Z,101343.81
2022-07-28T23:01:09.056Z,101340.31
2022-07-28T23:03:35.839Z,101343.88
2022-07-28T23:06:03.103Z,101346.69
2022-07-28T23:08:29.799Z,101349.41
2022-07-28T23:10:56.477Z,101358.25
2022-07-28T23:13:23.150Z,101352.19
2022-07-28T23:15:50.433Z,101350.38
2022-07-28T23:18:17.107Z,101349.53
2022-07-28T23:20:44.181Z,101349.59
2022-07-28T23:23:11.487Z,101354.94
2022-07-28T23:25:42.119Z,101356.81
2022-07-28T23:28:08.817Z,101351.50
2022-07-28T23:30:35.573Z,101361.22
2022-07-28T23:33:02.251Z,101355.03
2022-07-28T23:35:29.011Z,101355.97
2022-07-28T23:37:55.783Z,101352.53
2022-07-28T23:40:23.185Z,101352.53
2022-07-28T23:42:49.810Z,101344.66
2022-07-28T23:45:16.434Z,101349.13
2022-07-28T23:47:43.136Z,101349.13
2022-07-28T23:50:09.990Z,101348.34
2022-07-28T23:52:36.629Z,101353.69
2022-07-28T23:55:04.195Z,101345.75
2022-07-28T23:57:31.540Z,101346.66
2022-07-28T23:59:59.200Z,101343.16
